createdAt,value
2019-03-05T00:02:09.726Z,1.40
2019-03-05T00:04:38.523Z,2.20
2019-03-05T00:07:07.219Z,1.77
2019-03-05T00:09:35.898Z,1.87
2019-03-05T00:12:04.771Z,2.43
2019-03-05T00:14:33.463Z,2.00
2019-03-05T00:17:02.423Z,2.63
2019-03-05T00:19:31.265Z,2.27
2019-03-05T00:22:00.607Z,3.13
2019-03-05T00:24:57.772Z,2.00
2019-03-05T00:27:26.689Z,2.60
2019-03-05T00:30:07.259Z,1.90
2019-03-05T00:32:36.369Z,2.33
2019-03-05T00:35:58.211Z,2.50
2019-03-05T00:38:51.298Z,2.13
2019-03-05T00:41:45.686Z,3.70
2019-03-05T00:45:00.344Z,3.00
2019-03-05T00:47:43.364Z,2.03
2019-03-05T00:50:59.577Z,2.70
2019-03-05T00:53:48.226Z,2.27
2019-03-05T00:56:38.480Z,2.90
2019-03-05T00:59:29.949Z,2.93
2019-03-05T01:02:15.327Z,2.67
2019-03-05T01:05:16.132Z,3.83
2019-03-05T01:07:45.236Z,2.53
2019-03-05T01:10:16.043Z,2.80
2019-03-05T01:12:44.950Z,2.93
2019-03-05T01:15:14.044Z,2.87
2019-03-05T01:17:42.899Z,2.80
2019-03-05T01:20:12.427Z,2.73
2019-03-05T01:22:41.268Z,2.90
2019-03-05T01:25:24.505Z,2.23
2019-03-05T01:27:53.311Z,2.30
2019-03-05T01:30:33.956Z,2.33
2019-03-05T01:33:10.239Z,2.27
2019-03-05T01:35:44.490Z,2.07
2019-03-05T01:38:13.246Z,1.90
2019-03-05T01:40:45.298Z,2.17
2019-03-05T01:43:14.459Z,1.20
2019-03-05T01:45:43.366Z,2.80
2019-03-05T01:48:12.279Z,2.70
2019-03-05T01:50:41.522Z,2.13
2019-03-05T01:53:10.178Z,1.87
2019-03-05T01:55:39.291Z,2.37
2019-03-05T01:58:08.407Z,2.40
2019-03-05T02:00:38.540Z,1.97
2019-03-05T02:03:07.291Z,1.73
2019-03-05T02:05:36.446Z,1.90
2019-03-05T02:08:05.530Z,1.37
2019-03-05T02:10:34.209Z,2.67
2019-03-05T02:13:03.223Z,2.10
2019-03-05T02:15:32.182Z,1.80
2019-03-05T02:18:01.095Z,2.23
2019-03-05T02:20:29.813Z,2.60
2019-03-05T02:23:12.067Z,1.93
2019-03-05T02:26:08.338Z,2.13
2019-03-05T02:29:01.631Z,2.27
2019-03-05T02:31:49.422Z,1.73
2019-03-05T02:34:40.675Z,1.70
2019-03-05T02:37:39.283Z,1.83
2019-03-05T02:40:33.723Z,1.73
2019-03-05T02:43:41.017Z,1.73
2019-03-05T02:46:47.331Z,2.10
2019-03-05T02:49:51.563Z,1.90
2019-03-05T02:53:00.508Z,1.97
2019-03-05T02:55:57.413Z,1.40
2019-03-05T02:58:26.591Z,1.97
2019-03-05T03:01:27.079Z,2.20
2019-03-05T03:03:59.446Z,2.43
2019-03-05T03:06:31.281Z,2.07
2019-03-05T03:09:43.489Z,1.73
2019-03-05T03:12:12.541Z,2.30
2019-03-05T03:14:41.535Z,2.13
2019-03-05T03:17:10.666Z,2.43
2019-03-05T03:19:39.659Z,2.20
2019-03-05T03:22:08.351Z,1.43
2019-03-05T03:24:37.163Z,2.33
2019-03-05T03:27:06.003Z,1.83
2019-03-05T03:29:35.016Z,1.80
2019-03-05T03:32:15.051Z,1.63
2019-03-05T03:34:43.830Z,1.90
2019-03-05T03:37:12.815Z,1.17
2019-03-05T03:39:41.496Z,1.63
2019-03-05T03:42:10.296Z,1.50
2019-03-05T03:44:38.979Z,1.40
2019-03-05T03:47:08.766Z,1.47
2019-03-05T03:49:37.462Z,1.20
2019-03-05T03:52:06.239Z,1.50
2019-03-05T03:54:35.456Z,1.43
2019-03-05T03:57:04.220Z,1.93
2019-03-05T03:59:33.269Z,1.50
2019-03-05T04:02:02.012Z,1.20
2019-03-05T04:04:30.849Z,1.53
2019-03-05T04:06:59.797Z,1.83
2019-03-05T04:09:28.968Z,1.40
2019-03-05T04:11:57.869Z,1.30
2019-03-05T04:14:26.878Z,1.37
2019-03-05T04:16:56.034Z,1.50
2019-03-05T04:19:28.547Z,1.73
2019-03-05T04:21:57.909Z,1.33
2019-03-05T04:24:26.612Z,1.17
2019-03-05T04:26:55.281Z,1.83
2019-03-05T04:29:24.270Z,1.60
2019-03-05T04:31:53.297Z,1.57
2019-03-05T04:34:22.034Z,1.80
2019-03-05T04:36:50.941Z,1.60
2019-03-05T04:39:19.782Z,1.30
2019-03-05T04:41:48.446Z,1.23
2019-03-05T04:44:24.109Z,2.00
2019-03-05T04:46:55.138Z,1.53
2019-03-05T04:49:46.259Z,1.60
2019-03-05T04:52:17.561Z,2.23
2019-03-05T04:54:46.358Z,2.20
2019-03-05T04:57:15.958Z,2.17
2019-03-05T04:59:44.986Z,1.93
2019-03-05T05:02:14.175Z,2.00
2019-03-05T05:04:42.998Z,1.67
2019-03-05T05:07:11.751Z,1.93
2019-03-05T05:09:40.405Z,2.13
2019-03-05T05:12:09.082Z,2.20
2019-03-05T05:14:38.145Z,1.87
2019-03-05T05:17:06.938Z,2.10
2019-03-05T05:19:35.597Z,2.30
2019-03-05T05:22:04.277Z,2.73
2019-03-05T05:24:32.943Z,1.87
2019-03-05T05:27:01.633Z,2.80
2019-03-05T05:29:30.837Z,2.00
2019-03-05T05:31:59.726Z,3.17
2019-03-05T05:34:28.383Z,2.63
2019-03-05T05:36:57.296Z,1.97
2019-03-05T05:40:04.651Z,2.90
2019-03-05T05:42:32.249Z,2.60
2019-03-05T05:45:00.929Z,3.10
2019-03-05T05:47:29.599Z,2.60
2019-03-05T05:50:01.268Z,3.03
2019-03-05T05:52:29.990Z,2.90
2019-03-05T05:54:58.885Z,2.80
2019-03-05T05:57:27.914Z,3.10
2019-03-05T05:59:56.681Z,2.67
2019-03-05T06:02:25.462Z,2.20
2019-03-05T06:04:55.317Z,3.03
2019-03-05T06:07:23.998Z,3.50
2019-03-05T06:09:52.958Z,3.20
2019-03-05T06:12:22.102Z,3.40
2019-03-05T06:14:50.834Z,2.63
2019-03-05T06:17:19.506Z,3.47
2019-03-05T06:19:48.271Z,3.03
2019-03-05T06:22:16.927Z,2.97
2019-03-05T06:24:45.569Z,3.87
2019-03-05T06:27:14.720Z,2.87
2019-03-05T06:29:43.426Z,3.40
2019-03-05T06:32:12.411Z,3.25
2019-03-05T06:34:41.432Z,2.63
2019-03-05T06:37:10.414Z,4.10
2019-03-05T06:39:39.309Z,3.00
2019-03-05T06:42:08.084Z,2.60
2019-03-05T06:44:36.825Z,3.33
2019-03-05T06:47:05.695Z,2.93
2019-03-05T06:49:34.833Z,3.17
2019-03-05T06:52:03.691Z,2.60
2019-03-05T06:54:32.983Z,2.73
2019-03-05T06:57:02.064Z,3.73
2019-03-05T06:59:31.028Z,2.63
2019-03-05T07:01:59.850Z,2.30
2019-03-05T07:04:31.474Z,2.70
2019-03-05T07:07:01.265Z,2.83
2019-03-05T07:09:54.207Z,2.50
2019-03-05T07:12:47.450Z,2.10
2019-03-05T07:16:01.238Z,2.57
2019-03-05T07:18:42.514Z,2.20
2019-03-05T07:21:52.285Z,2.77
2019-03-05T07:24:38.087Z,2.67
2019-03-05T07:27:07.818Z,1.85
2019-03-05T07:29:36.766Z,2.75
2019-03-05T07:32:05.607Z,2.25
2019-03-05T07:34:35.037Z,2.50
2019-03-05T07:37:04.069Z,2.58
2019-03-05T07:39:33.087Z,2.40
2019-03-05T07:42:01.884Z,2.22
2019-03-05T07:44:30.596Z,2.00
2019-03-05T07:46:59.517Z,2.47
2019-03-05T07:49:28.466Z,2.40
2019-03-05T07:52:00.290Z,2.72
2019-03-05T07:54:29.078Z,1.92
2019-03-05T07:56:58.053Z,2.35
2019-03-05T07:59:26.799Z,3.05
2019-03-05T08:01:55.594Z,2.25
2019-03-05T08:04:24.820Z,2.05
2019-03-05T08:06:53.573Z,2.97
2019-03-05T08:09:39.942Z,2.85
2019-03-05T08:12:44.113Z,2.70
2019-03-05T08:15:41.926Z,2.80
2019-03-05T08:18:10.617Z,2.27
2019-03-05T08:20:39.420Z,2.43
2019-03-05T08:23:08.956Z,1.83
2019-03-05T08:25:37.920Z,2.43
2019-03-05T08:28:06.793Z,2.57
2019-03-05T08:30:35.642Z,2.70
2019-03-05T08:33:04.621Z,2.20
2019-03-05T08:35:34.299Z,3.10
2019-03-05T08:38:03.067Z,2.27
2019-03-05T08:40:32.007Z,2.03
2019-03-05T08:43:00.772Z,2.30
2019-03-05T08:45:29.956Z,2.63
2019-03-05T08:47:59.081Z,2.05
2019-03-05T08:50:30.646Z,2.33
2019-03-05T08:52:59.550Z,2.20
2019-03-05T08:55:28.217Z,2.43
2019-03-05T08:57:56.946Z,1.90
2019-03-05T09:00:26.273Z,1.77
2019-03-05T09:02:55.197Z,1.90
2019-03-05T09:05:23.926Z,1.77
2019-03-05T09:07:52.753Z,1.60
2019-03-05T09:10:23.482Z,1.72
2019-03-05T09:12:52.843Z,1.77
2019-03-05T09:15:22.966Z,2.67
2019-03-05T09:17:52.335Z,1.82
2019-03-05T09:20:21.239Z,3.00
2019-03-05T09:22:50.253Z,1.52
2019-03-05T09:25:19.082Z,1.98
2019-03-05T09:27:48.118Z,1.55
2019-03-05T09:30:18.610Z,1.45
2019-03-05T09:32:47.479Z,1.52
2019-03-05T09:35:19.342Z,1.97
2019-03-05T09:37:48.209Z,1.33
2019-03-05T09:40:19.147Z,1.75
2019-03-05T09:42:48.255Z,1.60
2019-03-05T09:45:17.692Z,1.77
2019-03-05T09:47:46.473Z,2.13
2019-03-05T09:50:16.017Z,1.90
2019-03-05T09:52:54.479Z,1.70
2019-03-05T09:55:17.457Z,1.50
2019-03-05T09:57:46.920Z,1.60
2019-03-05T10:00:17.783Z,1.80
2019-03-05T10:02:48.787Z,1.70
2019-03-05T10:05:17.207Z,1.93
2019-03-05T10:07:46.504Z,2.30
2019-03-05T10:10:18.775Z,2.03
2019-03-05T10:12:48.599Z,2.27
2019-03-05T10:15:19.454Z,1.93
2019-03-05T10:17:50.017Z,1.97
2019-03-05T10:20:20.334Z,2.13
2019-03-05T10:22:50.540Z,1.83
2019-03-05T10:25:23.488Z,1.97
2019-03-05T10:27:52.539Z,1.65
2019-03-05T10:30:25.001Z,2.27
2019-03-05T10:32:58.566Z,1.77
2019-03-05T10:35:27.609Z,2.25
2019-03-05T10:37:58.099Z,3.87
2019-03-05T10:40:29.682Z,3.85
2019-03-05T10:43:08.031Z,1.70
2019-03-05T10:45:29.798Z,1.82
2019-03-05T10:47:58.544Z,2.20
2019-03-05T10:50:28.082Z,3.02
2019-03-05T10:52:57.351Z,2.52
2019-03-05T10:55:27.397Z,2.00
2019-03-05T10:57:57.883Z,1.70
2019-03-05T11:00:32.263Z,1.97
2019-03-05T11:03:01.430Z,1.92
2019-03-05T11:05:33.093Z,1.80
2019-03-05T11:08:01.947Z,1.82
2019-03-05T11:10:31.599Z,1.70
2019-03-05T11:13:01.002Z,2.10
2019-03-05T11:15:30.242Z,1.77
2019-03-05T11:17:59.761Z,1.80
2019-03-05T11:20:28.676Z,1.98
2019-03-05T11:22:57.829Z,1.77
2019-03-05T11:25:26.560Z,2.12
2019-03-05T11:27:55.790Z,2.00
2019-03-05T11:30:35.573Z,1.60
2019-03-05T11:32:56.585Z,2.20
2019-03-05T11:35:26.469Z,1.98
2019-03-05T11:37:55.555Z,1.55
2019-03-05T11:40:24.345Z,1.72
2019-03-05T11:42:53.474Z,2.70
2019-03-05T11:45:24.326Z,2.37
2019-03-05T11:47:53.465Z,2.53
2019-03-05T11:50:22.845Z,1.87
2019-03-05T11:52:52.696Z,2.25
2019-03-05T11:55:23.349Z,2.00
2019-03-05T11:57:53.406Z,1.83
2019-03-05T12:00:32.788Z,2.30
2019-03-05T12:03:01.782Z,1.87
2019-03-05T12:05:30.591Z,1.70
2019-03-05T12:07:59.293Z,2.40
2019-03-05T12:10:28.204Z,2.00
2019-03-05T12:12:57.095Z,3.30
2019-03-05T12:15:26.741Z,1.87
2019-03-05T12:17:55.533Z,2.50
2019-03-05T12:20:24.641Z,2.07
2019-03-05T12:22:53.827Z,2.50
2019-03-05T12:25:23.720Z,1.90
2019-03-05T12:27:52.857Z,2.10
2019-03-05T12:30:22.629Z,2.53
2019-03-05T12:32:51.741Z,2.20
2019-03-05T12:35:20.977Z,1.93
2019-03-05T12:37:50.513Z,2.52
2019-03-05T12:40:19.304Z,2.12
2019-03-05T12:42:48.658Z,1.93
2019-03-05T12:45:18.605Z,2.07
2019-03-05T12:47:47.656Z,2.33
2019-03-05T12:50:17.862Z,1.80
2019-03-05T12:52:48.263Z,1.80
2019-03-05T12:55:17.082Z,2.20
2019-03-05T12:57:46.146Z,2.23
2019-03-05T13:00:20.559Z,1.60
2019-03-05T13:02:50.506Z,2.20
2019-03-05T13:05:19.719Z,2.77
2019-03-05T13:07:52.587Z,2.00
2019-03-05T13:10:21.080Z,2.33
2019-03-05T13:12:50.151Z,1.30
2019-03-05T13:15:21.959Z,2.12
2019-03-05T13:17:51.551Z,2.05
2019-03-05T13:20:22.581Z,1.95
2019-03-05T13:22:52.875Z,2.10
2019-03-05T13:25:24.223Z,1.90
2019-03-05T13:27:52.317Z,1.90
2019-03-05T13:30:22.017Z,2.00
2019-03-05T13:32:54.099Z,2.07
2019-03-05T13:35:25.370Z,2.00
2019-03-05T13:37:53.785Z,2.07
2019-03-05T13:40:24.480Z,1.80
2019-03-05T13:42:53.427Z,1.83
2019-03-05T13:45:23.238Z,1.80
2019-03-05T13:48:02.045Z,2.20
2019-03-05T13:51:00.142Z,2.80
2019-03-05T13:54:01.681Z,2.00
2019-03-05T13:56:58.623Z,2.17
2019-03-05T13:59:44.362Z,1.83
2019-03-05T14:02:15.342Z,2.13
2019-03-05T14:05:15.990Z,1.67
2019-03-05T14:08:29.123Z,2.10
2019-03-05T14:10:58.517Z,1.80
2019-03-05T14:13:27.399Z,1.60
2019-03-05T14:15:56.533Z,2.07
2019-03-05T14:18:25.331Z,2.40
2019-03-05T14:20:54.297Z,2.20
2019-03-05T14:23:23.423Z,2.07
2019-03-05T14:25:53.848Z,2.20
2019-03-05T14:28:22.649Z,2.23
2019-03-05T14:30:51.621Z,2.00
2019-03-05T14:33:20.427Z,1.77
2019-03-05T14:35:49.209Z,1.87
2019-03-05T14:38:18.162Z,1.63
2019-03-05T14:40:47.363Z,1.90
2019-03-05T14:43:16.111Z,2.13
2019-03-05T14:45:45.391Z,1.73
2019-03-05T14:48:14.451Z,2.40
2019-03-05T14:50:43.574Z,1.90
2019-03-05T14:53:12.406Z,1.47
2019-03-05T14:55:41.221Z,1.70
2019-03-05T14:58:10.369Z,1.77
2019-03-05T15:00:40.063Z,2.80
2019-03-05T15:03:08.879Z,2.43
2019-03-05T15:05:37.786Z,1.50
2019-03-05T15:08:07.078Z,1.57
2019-03-05T15:10:36.364Z,1.47
2019-03-05T15:13:15.192Z,1.50
2019-03-05T15:15:36.258Z,2.00
2019-03-05T15:18:05.187Z,2.60
2019-03-05T15:20:34.157Z,1.77
2019-03-05T15:23:02.941Z,1.93
2019-03-05T15:25:31.653Z,2.13
2019-03-05T15:28:01.752Z,3.17
2019-03-05T15:30:31.200Z,2.20
2019-03-05T15:32:59.938Z,1.40
2019-03-05T15:35:29.564Z,2.00
2019-03-05T15:37:58.705Z,2.10
2019-03-05T15:40:28.043Z,1.30
2019-03-05T15:42:56.929Z,1.50
2019-03-05T15:45:25.998Z,1.20
2019-03-05T15:47:54.777Z,1.63
2019-03-05T15:50:23.734Z,2.23
2019-03-05T15:52:52.563Z,2.23
2019-03-05T15:55:21.689Z,1.80
2019-03-05T15:57:50.491Z,2.10
2019-03-05T16:00:23.653Z,1.63
2019-03-05T16:02:52.817Z,1.80
2019-03-05T16:05:22.119Z,1.30
2019-03-05T16:07:51.397Z,1.67
2019-03-05T16:10:21.000Z,2.47
2019-03-05T16:12:49.795Z,2.00
2019-03-05T16:15:18.977Z,2.10
2019-03-05T16:17:47.774Z,2.10
2019-03-05T16:20:16.947Z,2.47
2019-03-05T16:22:46.022Z,1.93
2019-03-05T16:25:15.079Z,1.83
2019-03-05T16:27:43.878Z,1.90
2019-03-05T16:30:43.501Z,1.77
2019-03-05T16:33:19.301Z,1.33
2019-03-05T16:36:13.135Z,1.10
2019-03-05T16:39:13.045Z,1.33
2019-03-05T16:42:07.827Z,1.70
2019-03-05T16:45:07.922Z,2.20
2019-03-05T16:47:54.648Z,2.13
2019-03-05T16:50:31.798Z,1.50
2019-03-05T16:53:11.235Z,2.10
2019-03-05T16:56:11.278Z,1.43
2019-03-05T16:58:57.914Z,1.40
2019-03-05T17:01:37.345Z,1.10
2019-03-05T17:04:16.257Z,1.70
2019-03-05T17:06:56.684Z,1.17
2019-03-05T17:09:37.903Z,1.43
2019-03-05T17:12:06.691Z,1.17
2019-03-05T17:14:35.581Z,2.27
2019-03-05T17:17:04.622Z,1.20
2019-03-05T17:19:33.406Z,2.07
2019-03-05T17:22:02.735Z,1.80
2019-03-05T17:24:31.458Z,1.50
2019-03-05T17:27:00.146Z,1.97
2019-03-05T17:29:28.801Z,2.20
2019-03-05T17:31:59.523Z,1.70
2019-03-05T17:34:28.337Z,1.60
2019-03-05T17:36:57.245Z,2.30
2019-03-05T17:39:26.867Z,2.53
2019-03-05T17:41:55.513Z,2.60
2019-03-05T17:44:24.409Z,1.47
2019-03-05T17:46:53.254Z,2.23
2019-03-05T17:49:22.001Z,1.63
2019-03-05T17:51:50.691Z,1.77
2019-03-05T17:54:19.425Z,1.60
2019-03-05T17:56:48.322Z,1.87
2019-03-05T17:59:18.616Z,1.63
2019-03-05T18:01:54.259Z,1.57
2019-03-05T18:04:29.056Z,1.43
2019-03-05T18:06:57.846Z,1.70
2019-03-05T18:09:26.725Z,1.43
2019-03-05T18:11:55.511Z,1.60
2019-03-05T18:14:24.450Z,2.43
2019-03-05T18:16:53.153Z,1.73
2019-03-05T18:19:21.909Z,1.90
2019-03-05T18:21:50.577Z,2.17
2019-03-05T18:24:19.618Z,1.87
2019-03-05T18:26:48.311Z,2.00
2019-03-05T18:29:17.041Z,1.70
2019-03-05T18:31:46.135Z,2.20
2019-03-05T18:34:16.086Z,1.83
2019-03-05T18:36:44.844Z,2.47
2019-03-05T18:39:14.426Z,2.27
2019-03-05T18:41:43.110Z,2.37
2019-03-05T18:44:12.054Z,1.97
2019-03-05T18:46:41.024Z,1.87
2019-03-05T18:49:10.039Z,2.20
2019-03-05T18:51:38.970Z,2.33
2019-03-05T18:54:07.853Z,2.80
2019-03-05T18:56:36.777Z,1.80
2019-03-05T18:59:05.868Z,2.00
2019-03-05T19:01:34.605Z,2.37
2019-03-05T19:04:03.877Z,2.03
2019-03-05T19:06:32.569Z,2.27
2019-03-05T19:09:01.776Z,2.30
2019-03-05T19:11:31.045Z,2.60
2019-03-05T19:13:59.910Z,2.50
2019-03-05T19:16:28.770Z,2.33
2019-03-05T19:18:57.440Z,2.63
2019-03-05T19:21:26.714Z,3.83
2019-03-05T19:23:55.777Z,7.07
2019-03-05T19:26:24.637Z,9.20
2019-03-05T19:28:53.651Z,2.60
2019-03-05T19:31:22.998Z,3.53
2019-03-05T19:33:51.682Z,2.37
2019-03-05T19:36:23.525Z,2.40
2019-03-05T19:38:52.293Z,2.70
2019-03-05T19:41:21.028Z,2.63
2019-03-05T19:43:49.866Z,2.47
2019-03-05T19:46:18.979Z,3.10
2019-03-05T19:48:47.810Z,3.30
2019-03-05T19:51:16.734Z,3.30
2019-03-05T19:53:45.771Z,3.43
2019-03-05T19:56:14.461Z,4.57
2019-03-05T19:58:43.385Z,3.43
2019-03-05T20:01:18.262Z,2.90
2019-03-05T20:03:47.164Z,2.43
2019-03-05T20:06:17.247Z,2.63
2019-03-05T20:08:46.607Z,2.73
2019-03-05T20:11:15.433Z,3.63
2019-03-05T20:13:44.175Z,2.63
2019-03-05T20:16:14.834Z,3.13
2019-03-05T20:18:43.963Z,3.37
2019-03-05T20:21:13.005Z,3.63
2019-03-05T20:23:42.264Z,4.07
2019-03-05T20:26:10.927Z,3.63
2019-03-05T20:28:39.985Z,3.23
2019-03-05T20:31:09.562Z,3.27
2019-03-05T20:33:38.273Z,3.73
2019-03-05T20:36:07.157Z,3.90
2019-03-05T20:38:36.099Z,4.03
2019-03-05T20:41:05.129Z,3.63
2019-03-05T20:43:34.187Z,3.67
2019-03-05T20:46:16.005Z,3.93
2019-03-05T20:48:45.076Z,3.40
2019-03-05T20:51:13.849Z,3.47
2019-03-05T20:53:42.942Z,3.70
2019-03-05T20:56:11.887Z,3.13
2019-03-05T20:58:40.843Z,3.90
2019-03-05T21:01:11.088Z,3.23
2019-03-05T21:03:39.960Z,3.27
2019-03-05T21:06:08.845Z,3.33
2019-03-05T21:08:38.230Z,3.17
2019-03-05T21:11:07.439Z,3.90
2019-03-05T21:13:36.349Z,2.97
2019-03-05T21:16:05.739Z,3.30
2019-03-05T21:18:34.469Z,3.40
2019-03-05T21:21:03.694Z,4.90
2019-03-05T21:23:32.496Z,3.90
2019-03-05T21:26:01.629Z,4.00
2019-03-05T21:28:30.331Z,4.03
2019-03-05T21:30:59.442Z,3.10
2019-03-05T21:33:28.126Z,3.77
2019-03-05T21:35:56.929Z,4.27
2019-03-05T21:38:25.647Z,4.07
2019-03-05T21:40:54.723Z,4.47
2019-03-05T21:43:23.733Z,4.53
2019-03-05T21:45:53.387Z,4.53
2019-03-05T21:48:22.058Z,5.77
2019-03-05T21:50:50.756Z,3.87
2019-03-05T21:53:20.810Z,4.20
2019-03-05T21:55:49.487Z,3.87
2019-03-05T21:58:18.197Z,4.47
2019-03-05T22:00:48.913Z,4.23
2019-03-05T22:03:17.589Z,4.13
2019-03-05T22:05:49.369Z,4.33
2019-03-05T22:08:18.668Z,3.77
2019-03-05T22:10:47.546Z,4.07
2019-03-05T22:13:16.274Z,3.93
2019-03-05T22:15:45.478Z,4.07
2019-03-05T22:18:14.138Z,4.03
2019-03-05T22:20:43.165Z,3.33
2019-03-05T22:23:12.098Z,3.77
2019-03-05T22:25:40.978Z,4.73
2019-03-05T22:28:09.746Z,4.03
2019-03-05T22:30:38.851Z,4.20
2019-03-05T22:33:07.987Z,4.87
2019-03-05T22:35:36.726Z,5.20
2019-03-05T22:38:05.651Z,3.93
2019-03-05T22:40:34.313Z,4.87
2019-03-05T22:43:03.183Z,4.60
2019-03-05T22:45:32.501Z,4.70
2019-03-05T22:48:01.433Z,4.27
2019-03-05T22:50:30.349Z,5.20
2019-03-05T22:52:59.041Z,4.37
2019-03-05T22:55:27.972Z,4.57
2019-03-05T22:57:57.133Z,4.43
2019-03-05T23:01:12.733Z,5.17
2019-03-05T23:03:45.431Z,4.53
2019-03-05T23:06:14.522Z,4.73
2019-03-05T23:08:43.598Z,4.87
2019-03-05T23:11:12.321Z,4.77
2019-03-05T23:13:41.661Z,5.33
2019-03-05T23:16:11.689Z,5.33
2019-03-05T23:18:40.390Z,4.50
2019-03-05T23:21:09.587Z,4.63
2019-03-05T23:23:39.135Z,4.90
2019-03-05T23:26:08.294Z,4.73
2019-03-05T23:28:37.498Z,5.03
2019-03-05T23:31:07.640Z,5.00
2019-03-05T23:33:36.304Z,4.00
2019-03-05T23:36:05.148Z,4.83
2019-03-05T23:38:34.189Z,5.50
2019-03-05T23:41:02.830Z,4.33
2019-03-05T23:43:31.653Z,5.03
2019-03-05T23:46:01.277Z,4.20
2019-03-05T23:48:29.965Z,4.97
2019-03-05T23:50:59.139Z,4.23
2019-03-05T23:53:28.453Z,4.77
2019-03-05T23:55:57.123Z,4.60
2019-03-05T23:58:25.795Z,4.80
